Hauptseite
METAR-TAF:

METAR-TAF

Flughäfen :

Fliegerhorst Büchel

Büchel, Deutschland

Breite: 50-10N, Länge: 007-04E, Höhe: 478 m

Beobachtung

Neuester Wetterbericht von vor 22 Minuten, um 05:20 UTC
Wind 6 kt aus Nord/Nordost
Temperatur 1°C
Luftfeuchtigkeit 93%
Luftdruck 1044 hPa
Sichtweite 10 km oder mehr
Durchbrochene Bewölkung in der Höhe von 2500 ft

METAR: ETSB 200520Z 02006KT 9999 BKN025 01/M00 Q1044 BLU BLU TEMPO WHT

Zeit: 06:42 (05:42 UTC)

Prognose

Neuester Wetterbericht von vor 22 Minuten, um 05:20 UTC
Gültige Prognose vom 20 um 06 UTC bis 20 um 15 UTC
Wind 8 kt aus Ost/Nordost
Sichtweite 10 km oder mehr
Durchbrochene Bewölkung in der Höhe von 3000 ft
Zeitweise
vom 20 um 06 UTC bis 20 um 10 UTC
Wind 6 kt aus Nord/Nordost
Sichtweite: 5000 m
Durchbrochene Bewölkung in der Höhe von 1500 ft
feuchter Dunst

TAF: ETSB 200520Z 2006/2015 06008KT 9999 NSW BKN030 TEMPO 2006/2010 03006KT 5000 BR BKN015 BY ETGL

Wetterbeobachtungen und Prognosen von mehr als 4000 Flughäfen (METAR und TAF Bericht).

Die verfügbaren Stationen werden durch gelbe und rote Markierungen auf der Karte dargestellt.

Führen Sie die Maus auf sie, um den Namen der Station zu sehen.

Darauf klicken, um die Beobachtung von Wetterbeobachtungen und Prognosen zu sehen.

Um die Karte zu ändern : klicken Sie auf den grünen Tasten mit einem schwarzen Kreuz Zum Vergrößern, auf den grünen Button mit einem Gedankenstrich zu verkleinern, oder auf die grünen Pfeile für benachbarte Karten.


METAR-TAF: